Time;durP1;ratioP1;P1;durP2;ratioP2;P2;SDS_P1;SDS_P2;PMS_P1;PMS_P2;Temp;Humidity;BMP_temperature;BMP_pressure;BME280_temperature;BME280_humidity;BME280_pressure;Samples;Min_cycle;Max_cycle;Signal;HPM_P1;HPM_P2
2022/03/15 00:01:25;;;;;;;18.60;16.73;;;6.70;99.90;;;;;;5036794;28;20648;-71
2022/03/15 00:03:52;;;;;;;18.25;16.45;;;6.70;99.90;;;;;;5038357;28;20226;-72
2022/03/15 00:06:19;;;;;;;17.38;15.52;;;6.70;99.90;;;;;;5035826;28;20240;-72
2022/03/15 00:08:46;;;;;;;17.90;16.10;;;6.70;99.90;;;;;;5034514;28;20250;-72
2022/03/15 00:11:14;;;;;;;17.83;16.02;;;6.60;99.90;;;;;;5036498;28;20223;-71
2022/03/15 00:13:42;;;;;;;18.17;16.25;;;6.70;99.90;;;;;;5040484;28;20230;-74
2022/03/15 00:16:10;;;;;;;16.98;15.27;;;6.70;99.90;;;;;;5039112;28;20230;-72
2022/03/15 00:18:38;;;;;;;18.25;16.45;;;6.70;99.90;;;;;;5042413;28;20380;-72
2022/03/15 00:21:10;;;;;;;19.98;17.95;;;6.70;99.90;;;;;;5040294;28;20721;-74
2022/03/15 00:23:37;;;;;;;21.45;19.05;;;6.60;99.90;;;;;;5042433;28;20233;-73
2022/03/15 00:26:04;;;;;;;21.75;19.38;;;6.50;99.90;;;;;;5045810;28;20231;-73
2022/03/15 00:28:34;;;;;;;20.75;18.65;;;6.50;99.90;;;;;;5036756;28;20199;-74
2022/03/15 00:31:01;;;;;;;22.17;19.95;;;6.50;99.90;;;;;;5040401;28;20222;-74
2022/03/15 00:33:29;;;;;;;20.65;18.75;;;6.40;99.90;;;;;;5040423;28;20215;-72
2022/03/15 00:35:56;;;;;;;25.23;22.27;;;6.30;99.90;;;;;;5041796;28;20633;-72
2022/03/15 00:38:24;;;;;;;27.20;24.27;;;6.20;99.90;;;;;;5043319;28;20681;-71
2022/03/15 00:40:51;;;;;;;25.05;22.45;;;6.20;99.90;;;;;;5036709;28;20441;-73
2022/03/15 00:43:18;;;;;;;26.17;23.45;;;6.20;99.90;;;;;;5038073;28;20732;-71
2022/03/15 00:45:47;;;;;;;25.10;22.40;;;6.20;99.90;;;;;;5042388;28;20230;-70
2022/03/15 00:48:14;;;;;;;26.17;23.23;;;6.20;99.90;;;;;;5043566;28;20198;-73
2022/03/15 00:50:41;;;;;;;27.55;24.75;;;6.20;99.90;;;;;;5041392;28;20222;-71
2022/03/15 00:53:10;;;;;;;25.45;22.48;;;6.20;99.90;;;;;;5043782;28;20219;-72
2022/03/15 00:55:37;;;;;;;25.23;22.63;;;6.20;99.90;;;;;;5039134;28;20650;-71
2022/03/15 00:58:05;;;;;;;24.52;22.02;;;6.20;99.90;;;;;;5037536;28;20312;-71
2022/03/15 01:00:32;;;;;;;25.02;22.42;;;6.20;99.90;;;;;;5038097;28;20592;-70
2022/03/15 01:03:01;;;;;;;24.60;21.92;;;6.20;99.90;;;;;;5037709;28;20214;-70
2022/03/15 01:05:28;;;;;;;24.77;22.10;;;6.20;99.90;;;;;;5039693;28;20698;-71
2022/03/15 01:07:55;;;;;;;32.50;22.25;;;6.20;99.90;;;;;;5039617;28;20211;-71
2022/03/15 01:10:22;;;;;;;27.90;24.05;;;6.20;99.90;;;;;;5037615;28;20227;-71
2022/03/15 01:12:50;;;;;;;23.40;21.02;;;6.20;99.90;;;;;;5034463;28;20242;-71
2022/03/15 01:15:17;;;;;;;25.25;22.73;;;6.30;99.90;;;;;;5095992;22;20275;-78
2022/03/15 01:17:45;;;;;;;21.80;19.50;;;6.30;99.90;;;;;;5033576;28;20225;-79
2022/03/15 01:20:13;;;;;;;25.70;22.90;;;6.20;99.90;;;;;;5046301;28;20195;-79
2022/03/15 01:22:40;;;;;;;27.10;23.02;;;6.10;99.90;;;;;;5040271;28;20203;-80
2022/03/15 01:25:09;;;;;;;27.52;24.58;;;6.10;99.90;;;;;;5051046;28;20219;-82
2022/03/15 01:27:36;;;;;;;25.38;22.42;;;6.10;99.90;;;;;;5063288;28;20195;-79
2022/03/15 01:30:04;;;;;;;24.83;22.33;;;6.10;99.90;;;;;;5056600;28;20564;-86
2022/03/15 01:32:31;;;;;;;27.27;24.58;;;6.10;99.90;;;;;;5054758;28;20754;-79
2022/03/15 01:34:58;;;;;;;25.73;23.08;;;6.20;99.90;;;;;;5053705;28;20219;-79
2022/03/15 01:37:26;;;;;;;25.05;22.45;;;6.20;99.90;;;;;;5057635;28;20226;-79
2022/03/15 01:39:54;;;;;;;24.15;21.65;;;6.10;99.90;;;;;;5050376;28;20775;-80
2022/03/15 01:42:21;;;;;;;25.70;22.92;;;6.10;99.90;;;;;;5055165;28;20214;-80
2022/03/15 01:44:49;;;;;;;26.30;22.52;;;6.10;99.90;;;;;;5060554;28;20309;-83
2022/03/15 01:47:17;;;;;;;27.33;24.10;;;6.10;99.90;;;;;;5053909;28;20222;-79
2022/03/15 01:49:44;;;;;;;26.30;23.55;;;6.10;99.90;;;;;;5056599;28;20206;-84
2022/03/15 01:52:13;;;;;;;25.77;22.98;;;6.10;99.90;;;;;;5054676;28;20226;-80
2022/03/15 01:54:42;;;;;;;24.25;21.80;;;6.10;99.90;;;;;;5057296;28;20516;-80
2022/03/15 01:57:09;;;;;;;24.85;22.02;;;6.10;99.90;;;;;;5060875;28;20218;-83
2022/03/15 01:59:37;;;;;;;26.08;23.30;;;6.10;99.90;;;;;;5058461;28;20190;-80
2022/03/15 02:02:05;;;;;;;24.00;21.55;;;6.10;99.90;;;;;;5053796;28;20510;-79
2022/03/15 02:04:34;;;;;;;23.98;21.48;;;6.10;99.90;;;;;;5058874;28;20218;-81
2022/03/15 02:07:02;;;;;;;24.60;22.10;;;6.20;99.90;;;;;;5054116;28;20602;-80
2022/03/15 02:09:29;;;;;;;29.83;26.70;;;6.10;99.90;;;;;;5058594;28;20198;-82
2022/03/15 02:11:58;;;;;;;24.98;22.38;;;6.20;99.90;;;;;;5054325;28;20226;-81
2022/03/15 02:14:25;;;;;;;20.40;18.30;;;6.20;99.90;;;;;;5055912;28;20221;-79
2022/03/15 02:16:53;;;;;;;19.15;17.25;;;6.30;99.90;;;;;;5053660;28;20306;-80
2022/03/15 02:19:20;;;;;;;19.75;17.80;;;6.40;99.90;;;;;;5054693;28;20255;-82
2022/03/15 02:21:48;;;;;;;18.80;16.90;;;6.40;99.90;;;;;;5061919;28;20226;-79
2022/03/15 02:24:16;;;;;;;19.80;17.80;;;6.50;99.90;;;;;;5052722;28;20269;-80
2022/03/15 02:26:43;;;;;;;24.10;20.70;;;6.50;99.90;;;;;;5052807;28;20217;-80
2022/03/15 02:29:10;;;;;;;20.83;18.73;;;6.50;99.90;;;;;;5055709;28;20206;-83
2022/03/15 02:31:37;;;;;;;25.98;17.77;;;6.50;99.90;;;;;;5053656;28;20218;-85
2022/03/15 02:34:05;;;;;;;20.05;18.10;;;6.50;99.90;;;;;;5052855;28;20229;-81
2022/03/15 02:36:32;;;;;;;18.05;16.25;;;6.50;99.90;;;;;;5041906;28;20641;-79
2022/03/15 02:39:01;;;;;;;17.95;16.15;;;6.60;99.90;;;;;;5052802;28;20571;-84
2022/03/15 02:41:28;;;;;;;18.60;16.70;;;6.60;99.90;;;;;;5054114;28;20214;-85
2022/03/15 02:43:56;;;;;;;19.50;17.50;;;6.60;99.90;;;;;;5045675;28;20285;-79
2022/03/15 02:46:29;;;;;;;20.70;18.63;;;6.60;99.90;;;;;;5056628;28;20230;-81
2022/03/15 02:48:56;;;;;;;20.75;18.60;;;6.50;99.90;;;;;;5047063;28;20198;-84
2022/03/15 02:51:24;;;;;;;21.85;19.50;;;6.50;99.90;;;;;;5054374;28;20222;-81
2022/03/15 02:53:53;;;;;;;22.50;20.23;;;6.40;99.90;;;;;;5049669;28;20252;-81
2022/03/15 02:56:21;;;;;;;21.73;19.52;;;6.30;99.90;;;;;;5052575;28;20218;-80
2022/03/15 02:58:49;;;;;;;21.02;18.90;;;6.20;99.90;;;;;;5053171;28;20203;-79
2022/03/15 03:01:16;;;;;;;26.42;23.27;;;6.20;99.90;;;;;;5051050;28;20247;-81
2022/03/15 03:03:44;;;;;;;20.65;18.17;;;6.10;99.90;;;;;;5051122;28;20356;-78
2022/03/15 03:06:11;;;;;;;22.80;20.45;;;6.00;99.90;;;;;;5052921;28;20219;-82
2022/03/15 03:08:38;;;;;;;21.20;19.02;;;6.00;99.90;;;;;;5058164;28;20869;-80
2022/03/15 03:11:05;;;;;;;20.75;18.75;;;6.00;99.90;;;;;;5052593;28;20230;-80
2022/03/15 03:13:34;;;;;;;21.77;19.45;;;5.90;99.90;;;;;;5053402;28;20194;-81
2022/03/15 03:16:03;;;;;;;20.23;18.13;;;6.00;99.90;;;;;;5065935;28;20297;-80
2022/03/15 03:18:32;;;;;;;19.45;17.45;;;6.10;99.90;;;;;;5050607;28;20195;-80
2022/03/15 03:21:01;;;;;;;20.38;18.30;;;6.20;99.90;;;;;;5047236;28;20301;-78
2022/03/15 03:23:28;;;;;;;21.20;19.10;;;6.20;99.90;;;;;;5053449;28;20201;-86
2022/03/15 03:25:56;;;;;;;20.98;18.95;;;6.30;99.90;;;;;;5050584;28;20304;-81
2022/03/15 03:28:24;;;;;;;20.08;18.05;;;6.30;99.90;;;;;;5055466;28;20511;-79
2022/03/15 03:30:52;;;;;;;21.77;19.55;;;6.30;99.90;;;;;;5044943;28;20271;-82
2022/03/15 03:33:20;;;;;;;21.02;19.00;;;6.40;99.90;;;;;;5052372;28;20198;-84
2022/03/15 03:35:49;;;;;;;19.98;17.88;;;6.40;99.90;;;;;;5047662;28;20324;-82
2022/03/15 03:38:17;;;;;;;20.02;18.00;;;6.40;99.90;;;;;;5051933;28;20203;-80
2022/03/15 03:40:44;;;;;;;18.70;16.85;;;6.40;99.90;;;;;;5044374;28;20256;-81
2022/03/15 03:43:11;;;;;;;17.83;16.02;;;6.40;99.90;;;;;;5052069;28;20396;-83
2022/03/15 03:45:38;;;;;;;18.70;16.80;;;6.40;99.90;;;;;;5055281;28;20589;-82
2022/03/15 03:48:07;;;;;;;20.05;17.88;;;6.40;99.90;;;;;;5053420;28;20608;-80
2022/03/15 03:50:35;;;;;;;20.80;18.77;;;6.40;99.90;;;;;;5049853;28;20202;-80
2022/03/15 03:53:03;;;;;;;18.52;16.70;;;6.40;99.90;;;;;;5052830;28;20214;-85
2022/03/15 03:55:30;;;;;;;20.20;18.20;;;6.40;99.90;;;;;;5054246;28;20210;-80
2022/03/15 03:57:57;;;;;;;19.30;17.33;;;6.50;99.90;;;;;;5049381;28;20226;-81
2022/03/15 04:00:24;;;;;;;20.23;18.10;;;6.50;99.90;;;;;;5046651;28;20191;-81
2022/03/15 04:02:52;;;;;;;21.88;19.52;;;6.50;99.90;;;;;;5051752;28;20705;-80
2022/03/15 04:05:21;;;;;;;22.00;19.88;;;6.40;99.90;;;;;;5050107;28;20324;-85
2022/03/15 04:07:48;;;;;;;21.67;19.40;;;6.40;99.90;;;;;;5050780;28;20214;-80
2022/03/15 04:10:16;;;;;;;18.63;16.63;;;6.30;99.90;;;;;;5061483;28;20198;-80
2022/03/15 04:12:44;;;;;;;20.40;18.30;;;6.20;99.90;;;;;;5050521;28;20218;-78
2022/03/15 04:15:12;;;;;;;19.98;17.98;;;6.10;99.90;;;;;;5053284;28;20219;-83
2022/03/15 04:17:39;;;;;;;20.00;18.05;;;6.10;99.90;;;;;;5051930;28;20305;-82
2022/03/15 04:20:07;;;;;;;20.67;18.55;;;6.10;99.90;;;;;;5047957;28;20660;-81
2022/03/15 04:22:36;;;;;;;19.92;17.77;;;6.10;99.90;;;;;;5048336;28;20664;-85
2022/03/15 04:25:03;;;;;;;21.83;19.70;;;6.10;99.90;;;;;;5046080;28;20624;-83
2022/03/15 04:27:31;;;;;;;19.52;17.52;;;6.00;99.90;;;;;;5049672;28;20565;-85
2022/03/15 04:29:58;;;;;;;21.23;18.98;;;5.90;99.90;;;;;;5045732;28;20583;-85
2022/03/15 04:32:25;;;;;;;19.95;17.92;;;5.90;99.90;;;;;;5051916;28;20214;-82
2022/03/15 04:34:52;;;;;;;18.85;16.95;;;5.90;99.90;;;;;;5048601;28;20215;-80
2022/03/15 04:37:20;;;;;;;20.65;18.55;;;5.80;99.90;;;;;;5048801;28;20218;-80
2022/03/15 04:39:48;;;;;;;20.02;17.92;;;5.70;99.90;;;;;;5050873;28;20196;-80
2022/03/15 04:42:16;;;;;;;20.52;18.33;;;5.60;99.90;;;;;;5048764;28;20254;-84
2022/03/15 04:44:43;;;;;;;22.35;19.95;;;5.70;99.90;;;;;;5049628;28;20297;-81
2022/03/15 04:47:10;;;;;;;20.88;18.67;;;5.60;99.90;;;;;;5050306;28;20237;-81
2022/03/15 04:49:37;;;;;;;21.83;19.48;;;5.50;99.90;;;;;;5051942;28;20555;-79
2022/03/15 04:52:04;;;;;;;22.38;19.98;;;5.50;99.90;;;;;;5050661;28;20974;-81
2022/03/15 04:54:32;;;;;;;20.65;18.55;;;5.50;99.90;;;;;;5051416;28;20242;-80
2022/03/15 04:57:00;;;;;;;22.15;19.83;;;5.50;99.90;;;;;;5051205;28;20230;-82
2022/03/15 04:59:27;;;;;;;20.20;18.17;;;5.60;99.90;;;;;;5054281;28;20203;-80
2022/03/15 05:01:54;;;;;;;22.17;19.77;;;5.60;99.90;;;;;;5049955;28;20219;-82
2022/03/15 05:04:21;;;;;;;20.13;18.02;;;5.60;99.90;;;;;;5061935;28;20222;-79
2022/03/15 05:06:48;;;;;;;19.48;17.48;;;5.60;99.90;;;;;;5051057;28;20219;-80
2022/03/15 05:09:15;;;;;;;19.52;17.52;;;5.60;99.90;;;;;;5053820;28;20253;-80
2022/03/15 05:11:44;;;;;;;20.23;18.23;;;5.60;99.90;;;;;;5052777;28;20222;-80
2022/03/15 05:14:13;;;;;;;18.77;16.70;;;5.60;99.90;;;;;;5052229;28;20229;-79
2022/03/15 05:16:40;;;;;;;21.98;19.67;;;5.60;99.90;;;;;;5048871;28;20253;-85
2022/03/15 05:19:07;;;;;;;20.65;18.67;;;5.50;99.90;;;;;;5052890;28;20203;-80
2022/03/15 05:21:35;;;;;;;20.58;18.42;;;5.50;99.90;;;;;;5052785;28;20393;-80
2022/03/15 05:24:02;;;;;;;22.45;20.05;;;5.50;99.90;;;;;;5053176;28;20314;-80
2022/03/15 05:26:29;;;;;;;20.88;18.67;;;5.40;99.90;;;;;;5059182;28;20230;-81
2022/03/15 05:28:56;;;;;;;20.98;18.70;;;5.40;99.90;;;;;;5057107;28;20195;-82
2022/03/15 05:31:28;;;;;;;23.10;20.67;;;5.30;99.90;;;;;;5052503;28;20229;-84
2022/03/15 05:33:56;;;;;;;19.95;17.95;;;5.40;99.90;;;;;;5053314;28;20225;-78
2022/03/15 05:36:23;;;;;;;22.75;19.85;;;5.40;99.90;;;;;;5051961;28;20530;-79
2022/03/15 05:38:50;;;;;;;23.38;20.88;;;5.30;99.90;;;;;;5052227;28;20194;-84
2022/03/15 05:41:17;;;;;;;21.52;19.33;;;5.40;99.90;;;;;;5058734;28;20213;-81
2022/03/15 05:43:44;;;;;;;24.13;20.77;;;5.30;99.90;;;;;;5062213;28;20218;-80
2022/03/15 05:46:11;;;;;;;20.33;18.17;;;5.30;99.90;;;;;;5063263;28;20222;-78
2022/03/15 05:48:40;;;;;;;21.70;19.50;;;5.40;99.90;;;;;;5055289;28;20203;-81
2022/03/15 05:51:07;;;;;;;20.10;18.02;;;5.40;99.90;;;;;;5051251;28;20198;-82
2022/03/15 05:53:34;;;;;;;23.70;19.73;;;5.40;99.90;;;;;;5056104;28;20274;-79
2022/03/15 05:56:01;;;;;;;21.73;17.98;;;5.40;99.90;;;;;;5052414;28;20277;-83
2022/03/15 05:58:28;;;;;;;19.90;17.90;;;5.40;99.90;;;;;;5068666;28;20259;-81
2022/03/15 06:00:56;;;;;;;21.90;19.77;;;5.40;99.90;;;;;;5054758;28;20696;-83
2022/03/15 06:03:23;;;;;;;19.70;17.77;;;5.60;99.90;;;;;;5059875;28;20264;-86
2022/03/15 06:05:53;;;;;;;21.85;18.40;;;5.60;99.90;;;;;;5054608;28;20267;-82
2022/03/15 06:08:20;;;;;;;19.38;17.48;;;5.70;99.90;;;;;;5055052;28;20532;-79
2022/03/15 06:10:47;;;;;;;19.60;17.50;;;5.80;99.90;;;;;;5056213;28;20202;-79
2022/03/15 06:13:14;;;;;;;20.88;18.73;;;5.80;99.90;;;;;;5056841;28;20267;-81
2022/03/15 06:15:41;;;;;;;19.20;17.20;;;5.90;99.90;;;;;;5059242;28;20218;-81
2022/03/15 06:18:08;;;;;;;19.75;17.75;;;5.90;99.90;;;;;;5057729;28;20260;-81
2022/03/15 06:20:36;;;;;;;19.88;17.77;;;5.90;99.90;;;;;;5060119;28;20586;-82
2022/03/15 06:23:04;;;;;;;19.83;17.77;;;6.00;99.90;;;;;;5057977;28;20218;-88
2022/03/15 06:25:32;;;;;;;19.85;17.85;;;6.00;99.90;;;;;;5055042;28;20226;-81
2022/03/15 06:27:59;;;;;;;19.67;17.63;;;6.10;99.90;;;;;;5057129;28;20225;-85
2022/03/15 06:30:27;;;;;;;18.77;16.83;;;6.20;99.90;;;;;;5052131;28;20855;-79
2022/03/15 06:32:54;;;;;;;18.92;17.02;;;6.20;99.90;;;;;;5047554;28;20219;-79
2022/03/15 06:35:22;;;;;;;17.77;15.98;;;6.30;99.90;;;;;;5053647;28;20215;-83
2022/03/15 06:37:50;;;;;;;18.30;16.40;;;6.40;99.90;;;;;;5046704;28;20223;-77
2022/03/15 06:40:24;;;;;;;17.00;15.30;;;6.50;99.90;;;;;;5050493;28;20205;-81
2022/03/15 06:42:52;;;;;;;19.58;17.52;;;6.50;99.90;;;;;;5053565;28;20233;-79
2022/03/15 06:45:20;;;;;;;19.48;17.42;;;6.60;99.90;;;;;;5051007;28;20234;-80
2022/03/15 06:47:47;;;;;;;19.35;16.63;;;6.60;99.90;;;;;;5050024;28;20272;-79
2022/03/15 06:50:15;;;;;;;21.10;18.88;;;6.60;99.90;;;;;;5048997;28;20206;-89
2022/03/15 06:52:43;;;;;;;19.63;17.52;;;6.50;99.90;;;;;;5059579;28;20222;-81
2022/03/15 06:55:12;;;;;;;21.55;19.30;;;6.50;99.90;;;;;;5047144;28;20222;-87
2022/03/15 06:57:41;;;;;;;20.15;18.02;;;6.40;99.90;;;;;;5050452;28;20276;-79
2022/03/15 07:00:11;;;;;;;18.55;16.55;;;6.40;99.90;;;;;;5043066;28;20203;-79
2022/03/15 07:02:38;;;;;;;19.33;17.33;;;6.40;99.90;;;;;;5044759;28;20233;-82
2022/03/15 07:05:06;;;;;;;20.05;18.08;;;6.50;99.90;;;;;;5048658;28;20281;-79
2022/03/15 07:07:34;;;;;;;18.23;16.30;;;6.50;99.90;;;;;;5049829;28;20217;-78
2022/03/15 07:10:05;;;;;;;20.73;17.98;;;6.50;99.90;;;;;;5049182;28;20389;-82
2022/03/15 07:12:32;;;;;;;19.40;17.35;;;6.50;99.90;;;;;;5056086;28;20222;-81
2022/03/15 07:15:03;;;;;;;19.65;17.55;;;6.60;99.90;;;;;;5114501;23;21620;-75
2022/03/15 07:17:31;;;;;;;20.10;18.05;;;6.60;99.90;;;;;;5046112;28;20218;-76
2022/03/15 07:19:58;;;;;;;23.02;20.63;;;6.60;99.90;;;;;;5045613;28;20669;-74
2022/03/15 07:22:25;;;;;;;21.33;19.10;;;6.60;99.90;;;;;;5041675;28;20218;-75
2022/03/15 07:24:53;;;;;;;21.45;19.23;;;6.80;99.90;;;;;;5047662;28;20223;-75
2022/03/15 07:27:20;;;;;;;22.33;20.08;;;6.90;99.90;;;;;;5066150;28;20245;-75
2022/03/15 07:29:48;;;;;;;22.60;20.25;;;6.90;99.90;;;;;;5050370;28;20206;-76
2022/03/15 07:32:16;;;;;;;24.13;21.55;;;6.90;99.90;;;;;;5049307;28;20217;-75
2022/03/15 07:34:43;;;;;;;26.58;22.08;;;6.90;99.90;;;;;;5046826;28;20264;-74
2022/03/15 07:37:10;;;;;;;22.67;20.38;;;7.00;99.90;;;;;;5044810;28;20219;-74
2022/03/15 07:39:37;;;;;;;21.77;19.58;;;7.10;99.90;;;;;;5039139;28;20202;-75
2022/03/15 07:42:04;;;;;;;20.63;18.52;;;7.10;99.90;;;;;;5036407;28;20625;-75
2022/03/15 07:44:31;;;;;;;23.67;21.20;;;7.20;99.90;;;;;;5044099;28;20199;-76
2022/03/15 07:46:58;;;;;;;25.92;21.58;;;7.10;99.90;;;;;;5037828;28;20305;-74
2022/03/15 07:49:27;;;;;;;24.23;21.73;;;7.10;99.90;;;;;;5037958;28;20203;-75
2022/03/15 07:51:54;;;;;;;24.90;22.20;;;7.20;99.90;;;;;;5039831;28;20191;-76
2022/03/15 07:54:21;;;;;;;24.08;21.58;;;7.30;99.90;;;;;;5044072;28;20850;-76
2022/03/15 07:56:50;;;;;;;25.98;21.98;;;7.40;99.90;;;;;;5037223;28;20228;-79
2022/03/15 07:59:17;;;;;;;22.00;19.70;;;7.40;99.90;;;;;;5040189;28;20483;-77
2022/03/15 08:01:44;;;;;;;24.95;22.33;;;7.50;99.90;;;;;;5039544;28;20954;-73
2022/03/15 08:04:11;;;;;;;24.40;20.88;;;7.60;99.90;;;;;;5038758;28;20252;-77
2022/03/15 08:06:39;;;;;;;27.48;23.30;;;7.60;99.90;;;;;;5038362;28;20670;-76
2022/03/15 08:09:07;;;;;;;27.80;25.00;;;7.60;99.90;;;;;;5042886;28;20226;-79
2022/03/15 08:11:35;;;;;;;26.30;23.52;;;7.60;99.90;;;;;;5044612;28;20217;-75
2022/03/15 08:14:02;;;;;;;26.40;23.52;;;7.50;99.90;;;;;;5038316;28;20914;-78
2022/03/15 08:16:29;;;;;;;27.55;24.58;;;7.50;99.90;;;;;;5040075;28;20551;-76
2022/03/15 08:18:56;;;;;;;26.00;23.23;;;7.50;99.90;;;;;;5041137;28;20284;-77
2022/03/15 08:21:25;;;;;;;23.92;21.38;;;7.50;99.90;;;;;;5043609;28;20538;-74
2022/03/15 08:23:54;;;;;;;25.63;22.83;;;7.60;99.90;;;;;;5040910;28;20219;-77
2022/03/15 08:26:21;;;;;;;26.02;23.05;;;7.70;99.90;;;;;;5042020;28;20222;-75
2022/03/15 08:28:49;;;;;;;25.60;22.90;;;7.80;99.90;;;;;;5043950;28;20245;-75
2022/03/15 08:31:17;;;;;;;26.15;23.25;;;7.80;99.90;;;;;;5039272;28;20199;-76
2022/03/15 08:33:44;;;;;;;27.13;24.30;;;7.90;99.90;;;;;;5037158;28;20222;-75
2022/03/15 08:36:13;;;;;;;28.42;25.35;;;7.80;99.90;;;;;;5039452;28;20210;-77
2022/03/15 08:38:41;;;;;;;26.17;23.45;;;7.90;99.90;;;;;;5039088;28;20237;-75
2022/03/15 08:41:10;;;;;;;27.15;24.25;;;7.90;99.90;;;;;;5042232;28;20702;-75
2022/03/15 08:43:37;;;;;;;28.05;25.02;;;7.90;99.90;;;;;;5039362;28;20729;-76
2022/03/15 08:46:05;;;;;;;26.17;23.55;;;7.80;99.90;;;;;;5043090;28;20237;-76
2022/03/15 08:48:33;;;;;;;28.40;25.33;;;7.90;99.90;;;;;;5046166;28;20228;-78
2022/03/15 08:51:01;;;;;;;26.85;24.00;;;7.90;99.90;;;;;;5046620;28;20594;-77
2022/03/15 08:53:28;;;;;;;28.60;24.65;;;7.90;99.90;;;;;;5059063;28;20219;-78
2022/03/15 08:55:56;;;;;;;25.88;23.27;;;8.00;99.90;;;;;;5038905;28;20524;-75
2022/03/15 08:58:24;;;;;;;25.08;22.25;;;8.10;99.90;;;;;;5039756;28;20219;-76
2022/03/15 09:00:52;;;;;;;27.55;24.65;;;8.40;99.90;;;;;;5044301;28;20199;-76
2022/03/15 09:03:20;;;;;;;27.50;24.63;;;8.50;99.90;;;;;;5041530;28;20246;-73
2022/03/15 09:05:47;;;;;;;30.30;25.38;;;8.50;99.90;;;;;;5041050;28;20219;-76
2022/03/15 09:08:14;;;;;;;27.58;24.65;;;8.60;99.90;;;;;;5043154;28;20233;-75
2022/03/15 09:10:42;;;;;;;29.98;26.58;;;8.60;99.90;;;;;;5041647;28;20830;-76
2022/03/15 09:13:10;;;;;;;23.15;20.77;;;8.70;99.90;;;;;;5043988;28;20335;-76
2022/03/15 09:15:38;;;;;;;30.85;27.55;;;8.70;99.90;;;;;;5042815;28;20743;-76
2022/03/15 09:18:07;;;;;;;26.85;24.05;;;8.60;99.90;;;;;;5035887;28;20219;-76
2022/03/15 09:20:34;;;;;;;27.13;24.20;;;8.60;99.90;;;;;;5036417;28;20201;-76
2022/03/15 09:23:01;;;;;;;26.80;24.10;;;8.70;99.90;;;;;;5034254;28;20218;-77
2022/03/15 09:25:30;;;;;;;26.92;24.00;;;8.80;99.90;;;;;;5043650;28;20230;-77
2022/03/15 09:27:57;;;;;;;26.70;23.73;;;8.80;99.90;;;;;;5044092;28;20719;-76
2022/03/15 09:30:24;;;;;;;26.73;23.92;;;8.80;99.90;;;;;;5036344;28;20207;-76
2022/03/15 09:32:53;;;;;;;28.27;25.25;;;8.90;99.90;;;;;;5039174;28;20227;-76
2022/03/15 09:35:20;;;;;;;27.30;24.45;;;8.90;99.90;;;;;;5043766;28;20508;-77
2022/03/15 09:37:49;;;;;;;26.15;23.40;;;9.00;99.90;;;;;;5034217;28;20824;-77
2022/03/15 09:40:21;;;;;;;27.23;24.02;;;9.00;99.90;;;;;;5027336;28;20221;-76
2022/03/15 09:42:51;;;;;;;26.27;23.58;;;9.00;99.90;;;;;;5039006;28;20293;-75
2022/03/15 09:45:23;;;;;;;27.60;24.88;;;9.10;99.90;;;;;;5034750;28;20221;-76
2022/03/15 09:47:56;;;;;;;27.40;24.65;;;9.20;99.90;;;;;;5036304;28;20219;-78
2022/03/15 09:50:25;;;;;;;27.85;23.27;;;9.20;99.90;;;;;;5035974;28;20517;-78
2022/03/15 09:52:54;;;;;;;25.67;22.98;;;9.30;99.90;;;;;;5041520;28;20282;-75
2022/03/15 09:55:21;;;;;;;23.80;21.35;;;9.40;99.90;;;;;;5039888;28;20223;-78
2022/03/15 09:57:48;;;;;;;26.65;23.90;;;9.40;99.90;;;;;;5038954;28;20230;-75
2022/03/15 10:00:16;;;;;;;28.48;25.48;;;9.50;99.90;;;;;;5032145;28;20245;-80
2022/03/15 10:02:44;;;;;;;28.73;24.75;;;9.50;99.90;;;;;;5040080;28;20215;-77
2022/03/15 10:05:14;;;;;;;28.35;25.45;;;9.40;99.90;;;;;;5041402;28;20306;-75
2022/03/15 10:07:41;;;;;;;28.60;25.67;;;9.30;99.90;;;;;;5039329;28;20257;-74
2022/03/15 10:10:11;;;;;;;27.95;25.02;;;9.20;99.90;;;;;;5039549;28;20245;-76
2022/03/15 10:12:39;;;;;;;26.40;23.52;;;9.20;99.90;;;;;;5032808;28;20222;-76
2022/03/15 10:15:15;;;;;;;24.40;22.00;;;9.30;99.90;;;;;;5040315;28;20239;-77
2022/03/15 10:17:44;;;;;;;25.17;22.42;;;9.40;99.90;;;;;;5049969;28;20226;-79
2022/03/15 10:20:16;;;;;;;27.35;22.17;;;9.40;99.90;;;;;;5042627;28;20203;-75
2022/03/15 10:22:52;;;;;;;24.92;22.25;;;9.50;99.90;;;;;;5043011;28;20229;-74
2022/03/15 10:25:22;;;;;;;27.02;24.17;;;9.70;99.90;;;;;;5037156;28;20221;-74
2022/03/15 10:27:52;;;;;;;24.48;21.90;;;9.70;99.90;;;;;;5043911;28;21137;-77
2022/03/15 10:30:19;;;;;;;27.40;24.58;;;9.70;99.90;;;;;;5035501;28;20209;-74
2022/03/15 10:32:48;;;;;;;24.65;22.15;;;9.60;99.90;;;;;;5034925;28;20231;-76
2022/03/15 10:35:19;;;;;;;27.17;24.35;;;9.70;99.90;;;;;;5037422;28;20223;-75
2022/03/15 10:37:46;;;;;;;28.60;25.60;;;9.70;99.90;;;;;;5037220;28;20222;-76
2022/03/15 10:40:14;;;;;;;29.42;26.52;;;9.70;99.90;;;;;;5039037;28;20727;-75
2022/03/15 10:42:43;;;;;;;25.65;22.95;;;9.60;99.90;;;;;;5036982;28;20641;-76
2022/03/15 10:45:18;;;;;;;26.55;23.77;;;9.60;99.90;;;;;;5037708;28;20704;-77
2022/03/15 10:47:49;;;;;;;28.13;25.20;;;9.70;99.90;;;;;;5037664;28;20353;-76
2022/03/15 10:50:18;;;;;;;28.88;25.60;;;9.80;99.90;;;;;;5032513;28;20289;-76
2022/03/15 10:52:46;;;;;;;26.98;24.08;;;9.80;99.90;;;;;;5031064;28;20308;-76
2022/03/15 10:55:15;;;;;;;27.05;24.35;;;9.70;99.90;;;;;;5038494;28;20218;-74
2022/03/15 10:57:51;;;;;;;24.48;22.08;;;9.80;99.90;;;;;;5035905;28;20605;-77
2022/03/15 11:00:21;;;;;;;27.55;24.55;;;9.70;99.90;;;;;;5046731;28;20241;-78
2022/03/15 11:02:50;;;;;;;25.63;23.02;;;9.70;99.90;;;;;;5045546;28;20230;-77
2022/03/15 11:05:32;;;;;;;26.73;23.92;;;9.70;99.90;;;;;;5041133;28;20250;-77
2022/03/15 11:08:05;;;;;;;29.13;26.02;;;9.70;99.90;;;;;;5044166;28;20324;-78
2022/03/15 11:10:33;;;;;;;25.30;22.70;;;9.70;99.90;;;;;;5043816;28;20202;-76
2022/03/15 11:13:05;;;;;;;26.48;23.67;;;9.60;99.90;;;;;;5046870;28;20296;-75
2022/03/15 11:15:36;;;;;;;25.23;22.65;;;9.60;99.90;;;;;;5044114;28;20276;-77
2022/03/15 11:18:06;;;;;;;26.38;23.52;;;9.50;99.90;;;;;;5045388;28;20314;-77
2022/03/15 11:20:37;;;;;;;26.80;24.02;;;9.50;99.90;;;;;;5043485;28;20190;-79
2022/03/15 11:23:07;;;;;;;25.92;23.30;;;9.40;99.90;;;;;;5040973;28;20669;-76
2022/03/15 11:25:39;;;;;;;26.17;23.40;;;9.30;99.90;;;;;;5045523;28;20596;-77
2022/03/15 11:28:09;;;;;;;29.52;26.25;;;9.20;99.90;;;;;;5041825;28;21023;-76
2022/03/15 11:30:37;;;;;;;28.05;25.08;;;9.30;99.90;;;;;;5049289;28;20234;-76
2022/03/15 11:33:05;;;;;;;28.23;25.23;;;9.30;99.90;;;;;;5047844;28;20210;-78
2022/03/15 11:35:35;;;;;;;30.13;26.90;;;9.30;99.90;;;;;;5044333;28;20715;-77
2022/03/15 11:38:04;;;;;;;28.65;25.75;;;9.30;99.90;;;;;;5049378;28;20214;-76
2022/03/15 11:40:32;;;;;;;31.20;26.98;;;9.40;99.90;;;;;;5043110;28;20566;-76
2022/03/15 11:43:12;;;;;;;30.55;27.17;;;9.50;99.90;;;;;;5054582;28;20215;-77
2022/03/15 11:45:44;;;;;;;28.90;25.88;;;9.50;99.90;;;;;;5056203;28;20317;-76
2022/03/15 11:48:16;;;;;;;27.30;24.50;;;9.60;99.90;;;;;;5048886;28;20713;-76
2022/03/15 11:50:57;;;;;;;26.30;23.58;;;9.60;99.90;;;;;;5045175;28;20688;-77
2022/03/15 11:53:45;;;;;;;24.73;22.13;;;9.70;99.90;;;;;;5048086;28;20226;-78
2022/03/15 11:56:27;;;;;;;26.40;23.70;;;9.80;99.90;;;;;;5046079;28;20570;-76
2022/03/15 11:58:55;;;;;;;29.58;26.48;;;9.80;99.90;;;;;;5041389;28;20674;-77
2022/03/15 12:01:23;;;;;;;26.80;24.05;;;9.80;99.90;;;;;;5044632;28;20378;-77
2022/03/15 12:03:52;;;;;;;28.35;25.30;;;9.80;99.90;;;;;;5053147;28;20246;-75
2022/03/15 12:06:25;;;;;;;30.00;26.80;;;9.70;99.90;;;;;;5042679;28;20227;-77
2022/03/15 12:08:55;;;;;;;29.00;25.08;;;9.60;99.90;;;;;;5046669;28;20242;-76
2022/03/15 12:11:32;;;;;;;25.27;22.85;;;9.50;99.90;;;;;;5054981;28;20335;-77
2022/03/15 12:14:09;;;;;;;26.60;23.58;;;9.50;99.90;;;;;;5055798;28;20225;-77
2022/03/15 12:16:40;;;;;;;25.25;22.65;;;9.50;99.90;;;;;;5051669;28;20724;-75
2022/03/15 12:19:23;;;;;;;25.95;23.27;;;9.50;99.90;;;;;;5050015;28;20317;-76
2022/03/15 12:21:54;;;;;;;23.75;21.30;;;9.50;99.90;;;;;;5062668;28;20675;-76
2022/03/15 12:24:32;;;;;;;25.58;21.85;;;9.50;99.90;;;;;;5062539;28;20617;-76
2022/03/15 12:27:01;;;;;;;26.70;23.95;;;9.50;99.90;;;;;;5057831;28;20252;-75
2022/03/15 12:29:28;;;;;;;25.42;22.83;;;9.50;99.90;;;;;;5048406;28;20218;-77
2022/03/15 12:31:57;;;;;;;26.33;23.48;;;9.50;99.90;;;;;;5050820;28;20454;-76
2022/03/15 12:34:27;;;;;;;24.33;21.88;;;9.50;99.90;;;;;;5044682;28;20353;-78
2022/03/15 12:36:58;;;;;;;24.08;21.70;;;9.60;99.90;;;;;;5046663;28;20321;-75
2022/03/15 12:39:27;;;;;;;23.88;21.55;;;9.70;99.90;;;;;;5045688;28;20711;-77
2022/03/15 12:42:06;;;;;;;22.30;20.15;;;9.70;99.90;;;;;;5049386;28;20200;-75